Terminal Aerodrome Forecast
Issued by NWS

Home | Current Version | Previous Version | Text Only | Print | Product List | Glossary On
Versions: 1 2 3 4 5 6 7 8 9 10 11 12 13 14 15 16 17
000
FTUS45 KBOI 241143
TAFMYL
TAF
KMYL 241143Z 2412/2512 35005KT P6SM -SHRA OVC035
      TEMPO 2412/2416 00000KT 3SM BR OVC006
     FM242100 16008KT P6SM VCSH SCT020 BKN150
     FM250100 VRB04KT P6SM FEW100 SCT250=

USA.gov is the U.S. government's official web portal to all federal, state and local government web resources and services.